Time;durP1;ratioP1;P1;durP2;ratioP2;P2;SDS_P1;SDS_P2;PMS_P1;PMS_P2;Temp;Humidity;BMP_temperature;BMP_pressure;BME280_temperature;BME280_humidity;BME280_pressure;Samples;Min_cycle;Max_cycle;Signal;HPM_P1;HPM_P2
2020/12/24 00:01:40;;;;;;;13.73;5.78;;;-4.20;99.90;;;;;;4995248;28;20241;-66
2020/12/24 00:04:05;;;;;;;13.05;5.70;;;-4.20;99.90;;;;;;4991217;28;20798;-66
2020/12/24 00:06:31;;;;;;;10.05;4.47;;;-4.20;99.90;;;;;;4996991;28;20763;-66
2020/12/24 00:08:57;;;;;;;8.80;3.90;;;-4.30;99.90;;;;;;4989867;28;20200;-66
2020/12/24 00:11:24;;;;;;;10.13;4.20;;;-4.20;99.90;;;;;;4998449;28;20285;-66
2020/12/24 00:13:50;;;;;;;9.70;4.50;;;-4.20;99.90;;;;;;4996219;28;20202;-66
2020/12/24 00:16:16;;;;;;;8.30;4.25;;;-4.20;99.90;;;;;;5000567;28;20198;-66
2020/12/24 00:18:41;;;;;;;9.93;4.50;;;-4.30;99.90;;;;;;4996670;28;20662;-65
2020/12/24 00:21:09;;;;;;;8.60;4.40;;;-4.30;99.90;;;;;;5001882;28;20586;-65
2020/12/24 00:23:35;;;;;;;8.93;4.28;;;-4.30;99.90;;;;;;4998088;28;20218;-66
2020/12/24 00:26:03;;;;;;;7.85;4.10;;;-4.30;99.90;;;;;;5001980;28;20229;-65
2020/12/24 00:28:28;;;;;;;10.20;4.40;;;-4.30;99.90;;;;;;5000110;28;20201;-66
2020/12/24 00:30:54;;;;;;;11.55;4.93;;;-4.40;99.90;;;;;;5003313;28;20200;-65
2020/12/24 00:33:19;;;;;;;12.18;4.53;;;-4.40;99.90;;;;;;5003617;28;20206;-65
2020/12/24 00:35:45;;;;;;;9.60;4.70;;;-4.40;99.90;;;;;;5001000;28;20206;-66
2020/12/24 00:38:11;;;;;;;7.20;3.97;;;-4.50;99.90;;;;;;5004492;28;20318;-65
2020/12/24 00:40:37;;;;;;;7.10;4.03;;;-4.50;99.90;;;;;;4998062;28;20235;-66
2020/12/24 00:43:03;;;;;;;7.38;3.55;;;-4.50;99.90;;;;;;4998730;28;20195;-66
2020/12/24 00:45:29;;;;;;;8.70;3.65;;;-4.50;99.90;;;;;;4998203;28;20268;-66
2020/12/24 00:47:54;;;;;;;9.70;4.05;;;-4.50;99.90;;;;;;4996995;28;20210;-66
2020/12/24 00:50:20;;;;;;;7.32;3.63;;;-4.40;99.90;;;;;;5000270;28;20281;-66
2020/12/24 00:52:45;;;;;;;4.90;2.70;;;-4.40;99.90;;;;;;5000635;28;20941;-65
2020/12/24 00:55:11;;;;;;;5.15;2.55;;;-4.20;99.90;;;;;;5000415;28;20883;-66
2020/12/24 00:57:37;;;;;;;5.72;2.75;;;-4.10;99.90;;;;;;4994489;28;20886;-65
2020/12/24 01:00:06;;;;;;;9.55;2.78;;;-4.20;99.90;;;;;;4999665;28;20196;-66
2020/12/24 01:02:33;;;;;;;4.05;2.30;;;-4.30;99.90;;;;;;4998094;28;20204;-65
2020/12/24 01:04:58;;;;;;;3.50;2.28;;;-4.30;99.90;;;;;;4993672;28;20238;-65
2020/12/24 01:07:24;;;;;;;3.13;2.22;;;-4.30;99.90;;;;;;4997908;28;20218;-66
2020/12/24 01:09:50;;;;;;;3.33;1.98;;;-4.30;99.90;;;;;;4990654;28;20282;-66
2020/12/24 01:12:15;;;;;;;3.63;2.03;;;-4.30;99.90;;;;;;4996481;28;20202;-67
2020/12/24 01:14:41;;;;;;;5.35;2.30;;;-4.40;99.90;;;;;;4993790;28;20195;-66
2020/12/24 01:17:06;;;;;;;5.13;2.50;;;-4.40;99.90;;;;;;4998316;28;20210;-66
2020/12/24 01:19:32;;;;;;;3.22;2.28;;;-4.50;99.90;;;;;;4994465;28;20204;-66
2020/12/24 01:21:58;;;;;;;3.35;2.30;;;-4.50;99.90;;;;;;4996116;28;20266;-66
2020/12/24 01:24:23;;;;;;;3.85;2.38;;;-4.60;99.90;;;;;;4995943;28;20194;-66
2020/12/24 01:26:49;;;;;;;4.38;2.30;;;-4.60;99.90;;;;;;4992630;28;20214;-66
2020/12/24 01:29:15;;;;;;;3.20;1.90;;;-4.60;99.90;;;;;;4999421;28;20230;-66
2020/12/24 01:31:45;;;;;;;2.72;1.98;;;-4.60;99.90;;;;;;4996198;28;20712;-66
2020/12/24 01:34:11;;;;;;;3.17;1.80;;;-4.50;99.90;;;;;;4997627;28;20250;-66
2020/12/24 01:36:37;;;;;;;2.38;1.50;;;-4.40;99.90;;;;;;4993917;28;20266;-66
2020/12/24 01:39:03;;;;;;;1.90;1.40;;;-4.20;99.90;;;;;;4995665;28;20207;-66
2020/12/24 01:41:28;;;;;;;2.92;1.60;;;-4.00;99.90;;;;;;4998405;28;20218;-67
2020/12/24 01:43:54;;;;;;;2.95;1.80;;;-3.90;99.90;;;;;;4995722;28;20754;-66
2020/12/24 01:46:20;;;;;;;3.35;1.63;;;-3.80;99.90;;;;;;4995757;28;20202;-66
2020/12/24 01:48:45;;;;;;;3.00;1.92;;;-3.70;99.90;;;;;;4994153;28;20191;-66
2020/12/24 01:51:18;;;;;;;4.95;2.33;;;-3.70;99.90;;;;;;4992364;28;20289;-66
2020/12/24 01:53:44;;;;;;;4.05;2.38;;;-3.70;99.90;;;;;;4992651;28;20198;-66
2020/12/24 01:56:10;;;;;;;4.68;2.53;;;-3.80;99.90;;;;;;4995721;28;20199;-66
2020/12/24 01:58:36;;;;;;;3.80;2.20;;;-3.90;99.90;;;;;;4995311;28;20229;-66
2020/12/24 02:01:02;;;;;;;4.90;2.80;;;-4.00;99.90;;;;;;4994967;28;20261;-65
2020/12/24 02:03:27;;;;;;;3.38;2.38;;;-4.10;99.90;;;;;;4998378;23;20239;-78
2020/12/24 02:05:56;;;;;;;6.05;2.30;;;-4.10;99.90;;;;;;4991411;28;20201;-79
2020/12/24 02:08:22;;;;;;;5.22;2.88;;;-4.20;99.90;;;;;;4998492;28;20210;-78
2020/12/24 02:10:48;;;;;;;4.20;2.20;;;-4.10;99.90;;;;;;4990367;28;20202;-77
2020/12/24 02:13:13;;;;;;;3.42;2.30;;;-4.10;99.90;;;;;;4991100;28;20195;-79
2020/12/24 02:15:39;;;;;;;3.67;2.30;;;-4.10;99.90;;;;;;4990966;28;20199;-78
2020/12/24 02:18:05;;;;;;;4.32;2.60;;;-4.20;99.90;;;;;;4991853;28;20196;-79
2020/12/24 02:20:31;;;;;;;3.60;2.40;;;-4.20;99.90;;;;;;4994282;28;20203;-78
2020/12/24 02:22:56;;;;;;;4.00;2.55;;;-4.10;99.90;;;;;;4992838;28;20293;-78
2020/12/24 02:25:22;;;;;;;4.53;2.40;;;-4.10;99.90;;;;;;4992045;28;20345;-78
2020/12/24 02:27:48;;;;;;;4.38;2.58;;;-4.10;99.90;;;;;;4993100;28;20642;-78
2020/12/24 02:30:13;;;;;;;8.50;3.35;;;-4.20;99.90;;;;;;4994013;28;20203;-77
2020/12/24 02:32:39;;;;;;;5.50;2.90;;;-4.10;99.90;;;;;;4990087;28;20195;-78
2020/12/24 02:35:06;;;;;;;4.20;2.63;;;-4.10;99.90;;;;;;4994933;28;20591;-78
2020/12/24 02:37:31;;;;;;;4.15;2.40;;;-4.10;99.90;;;;;;4993257;28;20238;-79
2020/12/24 02:39:57;;;;;;;4.25;2.33;;;-4.00;99.90;;;;;;4991969;28;20282;-78
2020/12/24 02:42:23;;;;;;;1.45;1.15;;;-3.80;99.90;;;;;;4993030;28;20208;-79
2020/12/24 02:44:49;;;;;;;3.22;1.90;;;-3.50;99.90;;;;;;4989268;28;20226;-78
2020/12/24 02:47:15;;;;;;;1.63;1.30;;;-3.30;99.90;;;;;;4996518;28;20211;-79
2020/12/24 02:49:41;;;;;;;1.27;1.17;;;-3.10;99.90;;;;;;4989633;28;20206;-79
2020/12/24 02:52:06;;;;;;;1.55;1.23;;;-2.80;99.90;;;;;;4995041;28;20249;-79
2020/12/24 02:54:32;;;;;;;1.38;1.10;;;-2.50;99.90;;;;;;4990105;28;20194;-80
2020/12/24 02:57:00;;;;;;;1.60;1.20;;;-2.30;99.90;;;;;;4993095;28;20191;-78
2020/12/24 02:59:27;;;;;;;1.40;1.30;;;-2.20;99.90;;;;;;4988459;28;20665;-79
2020/12/24 03:01:52;;;;;;;1.38;1.25;;;-2.10;99.90;;;;;;4991112;28;20202;-79
2020/12/24 03:04:19;;;;;;;2.20;1.20;;;-2.00;99.90;;;;;;4992254;28;20206;-79
2020/12/24 03:06:45;;;;;;;1.60;1.15;;;-1.80;99.90;;;;;;4990884;28;20230;-79
2020/12/24 03:09:11;;;;;;;1.63;1.20;;;-1.80;99.90;;;;;;4996057;28;20203;-79
2020/12/24 03:11:50;;;;;;;3.38;1.15;;;-1.70;99.90;;;;;;4991661;28;20211;-79
2020/12/24 03:14:18;;;;;;;1.42;1.30;;;-1.70;99.90;;;;;;4996248;28;20195;-78
2020/12/24 03:16:45;;;;;;;1.27;1.17;;;-1.60;99.90;;;;;;4996165;28;20212;-78
2020/12/24 03:19:11;;;;;;;1.10;1.00;;;-1.60;99.90;;;;;;4998989;28;20209;-78
2020/12/24 03:21:37;;;;;;;1.83;1.10;;;-1.40;99.90;;;;;;4997769;28;20570;-78
2020/12/24 03:24:03;;;;;;;1.45;1.13;;;-1.40;99.90;;;;;;4996187;28;20198;-78
2020/12/24 03:26:29;;;;;;;1.73;1.00;;;-1.30;99.90;;;;;;4992249;28;20199;-78
2020/12/24 03:28:54;;;;;;;1.20;1.10;;;-1.40;99.90;;;;;;4999152;28;20286;-79
2020/12/24 03:31:23;;;;;;;1.08;1.00;;;-1.40;99.90;;;;;;4989977;28;20230;-78
2020/12/24 03:33:50;;;;;;;3.10;1.00;;;-1.40;99.90;;;;;;4998673;28;20619;-79
2020/12/24 03:36:16;;;;;;;1.17;1.08;;;-1.30;99.90;;;;;;4991220;28;20698;-79
2020/12/24 03:38:41;;;;;;;0.95;0.95;;;-1.30;99.90;;;;;;4994340;28;20195;-78
2020/12/24 03:41:07;;;;;;;1.52;1.05;;;-1.10;99.90;;;;;;4988171;28;20203;-78
2020/12/24 03:43:33;;;;;;;1.10;1.00;;;-1.10;99.90;;;;;;4994477;28;20199;-79
2020/12/24 03:45:59;;;;;;;1.30;1.08;;;-1.00;99.90;;;;;;4992481;28;20191;-79
2020/12/24 03:48:24;;;;;;;1.20;1.10;;;-0.90;99.90;;;;;;4994230;28;20257;-78
2020/12/24 03:50:50;;;;;;;2.88;1.25;;;-0.90;99.90;;;;;;4991973;28;20320;-79
2020/12/24 03:53:16;;;;;;;1.20;1.10;;;-0.80;99.90;;;;;;4992137;28;20249;-79
2020/12/24 03:55:41;;;;;;;1.35;1.00;;;-0.80;99.90;;;;;;4994459;28;20211;-79
2020/12/24 03:58:07;;;;;;;1.00;0.90;;;-0.90;99.90;;;;;;4995352;28;20258;-79
2020/12/24 04:00:33;;;;;;;1.13;1.02;;;-0.80;99.90;;;;;;4995757;28;20297;-79
2020/12/24 04:02:58;;;;;;;1.02;1.00;;;-0.80;99.90;;;;;;4996827;28;20317;-79
2020/12/24 04:05:24;;;;;;;1.63;1.30;;;-0.80;99.90;;;;;;4994451;28;20219;-78
2020/12/24 04:07:50;;;;;;;0.80;0.80;;;-0.70;99.90;;;;;;4994941;28;20253;-79
2020/12/24 04:10:19;;;;;;;1.20;1.00;;;-0.80;99.90;;;;;;4992585;28;20195;-78
2020/12/24 04:12:45;;;;;;;0.90;0.90;;;-0.80;99.90;;;;;;4997725;28;20198;-78
2020/12/24 04:15:11;;;;;;;1.00;1.00;;;-0.80;99.90;;;;;;4993777;28;20416;-79
2020/12/24 04:17:37;;;;;;;1.23;1.00;;;-0.80;99.90;;;;;;4994543;28;20207;-79
2020/12/24 04:20:04;;;;;;;1.13;1.00;;;-0.70;99.90;;;;;;4992019;28;20199;-78
2020/12/24 04:22:29;;;;;;;0.98;0.98;;;-0.80;99.90;;;;;;4997113;28;20261;-78
2020/12/24 04:24:55;;;;;;;0.90;0.90;;;-0.80;99.90;;;;;;4992317;28;20745;-79
2020/12/24 04:27:23;;;;;;;3.83;0.90;;;-0.80;99.90;;;;;;4992844;28;20218;-79
2020/12/24 04:29:49;;;;;;;1.00;1.00;;;-0.80;99.90;;;;;;4995125;28;20286;-79
2020/12/24 04:32:15;;;;;;;3.67;1.00;;;-0.80;99.90;;;;;;4993933;28;20293;-79
2020/12/24 04:34:40;;;;;;;0.98;0.90;;;-0.90;99.90;;;;;;4991482;28;20547;-79
2020/12/24 04:37:06;;;;;;;0.93;0.90;;;-1.00;99.90;;;;;;4997097;28;20194;-79
2020/12/24 04:39:32;;;;;;;1.42;0.90;;;-1.00;99.90;;;;;;4996864;28;20252;-79
2020/12/24 04:41:59;;;;;;;1.10;1.00;;;-1.00;99.90;;;;;;4996416;28;20198;-79
2020/12/24 04:44:28;;;;;;;1.10;1.00;;;-0.90;99.90;;;;;;4995010;28;20209;-79
2020/12/24 04:46:58;;;;;;;1.15;1.05;;;-1.10;99.90;;;;;;4997006;28;20538;-80
2020/12/24 04:49:30;;;;;;;0.88;0.88;;;-1.10;99.90;;;;;;4992584;28;20203;-79
2020/12/24 04:51:56;;;;;;;1.77;1.20;;;-1.30;99.90;;;;;;4993797;28;20199;-79
2020/12/24 04:54:22;;;;;;;1.20;1.10;;;-1.40;99.90;;;;;;4999033;28;20568;-79
2020/12/24 04:56:48;;;;;;;1.80;1.15;;;-1.60;99.90;;;;;;4995457;28;20207;-79
2020/12/24 04:59:17;;;;;;;1.10;1.00;;;-1.80;99.90;;;;;;4991332;28;20200;-78
2020/12/24 05:01:43;;;;;;;1.05;1.00;;;-1.90;99.90;;;;;;4993401;28;20206;-79
2020/12/24 05:04:09;;;;;;;0.93;0.90;;;-2.00;99.90;;;;;;4995254;28;20793;-80
2020/12/24 05:06:35;;;;;;;2.45;1.10;;;-2.20;99.90;;;;;;4993617;28;20215;-78
2020/12/24 05:09:00;;;;;;;1.48;1.00;;;-2.30;99.90;;;;;;4991138;28;20198;-79
2020/12/24 05:11:28;;;;;;;2.15;1.27;;;-2.40;99.90;;;;;;4992620;28;20195;-80
2020/12/24 05:13:54;;;;;;;1.10;1.00;;;-2.50;99.90;;;;;;4987975;28;20618;-79
2020/12/24 05:16:20;;;;;;;1.30;1.00;;;-2.60;99.90;;;;;;4993345;28;20207;-79
2020/12/24 05:18:46;;;;;;;1.50;1.02;;;-2.80;99.90;;;;;;4992445;28;20199;-79
2020/12/24 05:21:30;;;;;;;1.00;0.93;;;-2.90;99.90;;;;;;4993942;28;20213;-79
2020/12/24 05:23:55;;;;;;;2.35;1.20;;;-3.00;99.90;;;;;;4993733;28;20281;-79
2020/12/24 05:26:21;;;;;;;2.08;1.00;;;-3.10;99.90;;;;;;4988922;28;20221;-79
2020/12/24 05:28:47;;;;;;;1.20;1.10;;;-3.10;99.90;;;;;;4992533;28;20187;-79
2020/12/24 05:31:31;;;;;;;1.00;1.00;;;-3.10;99.90;;;;;;4993527;28;20191;-79
2020/12/24 05:33:56;;;;;;;1.10;1.00;;;-3.20;99.90;;;;;;4990832;28;20689;-79
2020/12/24 05:36:22;;;;;;;1.25;1.15;;;-3.30;99.90;;;;;;4994948;28;20227;-79
2020/12/24 05:38:50;;;;;;;1.55;1.10;;;-3.40;99.90;;;;;;4993021;28;20207;-77
2020/12/24 05:41:28;;;;;;;1.25;1.15;;;-3.40;99.90;;;;;;4994216;28;20211;-79
2020/12/24 05:43:58;;;;;;;1.33;1.20;;;-3.20;99.90;;;;;;4995640;28;20199;-80
2020/12/24 05:46:26;;;;;;;1.05;1.05;;;-3.20;99.90;;;;;;4996967;28;20265;-79
2020/12/24 05:48:52;;;;;;;1.45;1.00;;;-3.20;99.90;;;;;;4993112;28;20311;-79
2020/12/24 05:51:18;;;;;;;2.35;1.10;;;-3.10;99.90;;;;;;4995557;28;20858;-79
2020/12/24 05:53:45;;;;;;;1.67;1.20;;;-3.00;99.90;;;;;;4996831;28;20191;-79
2020/12/24 05:56:21;;;;;;;1.23;1.13;;;-2.90;99.90;;;;;;4995338;28;20203;-79
2020/12/24 05:58:51;;;;;;;1.70;1.00;;;-2.70;99.90;;;;;;4992384;28;20250;-79
2020/12/24 06:01:17;;;;;;;3.63;1.10;;;-2.50;99.90;;;;;;4996052;28;20253;-79
2020/12/24 06:04:03;;;;;;;1.10;1.00;;;-2.30;99.90;;;;;;4997847;28;20354;-79
2020/12/24 06:06:44;;;;;;;1.27;1.17;;;-2.10;99.90;;;;;;4989518;28;20625;-80
2020/12/24 06:09:14;;;;;;;1.00;1.00;;;-1.90;99.90;;;;;;4997068;28;20206;-79
2020/12/24 06:11:51;;;;;;;1.73;1.08;;;-1.80;99.90;;;;;;4989609;28;20199;-79
2020/12/24 06:14:26;;;;;;;0.90;0.90;;;-1.70;99.90;;;;;;4993323;28;20691;-79
2020/12/24 06:16:54;;;;;;;0.90;0.90;;;-1.60;99.90;;;;;;5006353;28;20201;-79
2020/12/24 06:19:20;;;;;;;2.20;0.90;;;-1.60;99.90;;;;;;4992248;28;20241;-79
2020/12/24 06:21:47;;;;;;;0.85;0.85;;;-1.60;99.90;;;;;;4994591;28;20202;-79
2020/12/24 06:24:13;;;;;;;1.23;1.08;;;-1.60;99.90;;;;;;4992252;28;20206;-79
2020/12/24 06:26:47;;;;;;;1.05;1.02;;;-1.50;99.90;;;;;;4992601;28;20207;-79
2020/12/24 06:29:15;;;;;;;0.98;0.93;;;-1.40;99.90;;;;;;4993447;28;20198;-79
2020/12/24 06:31:42;;;;;;;0.93;0.93;;;-1.50;99.90;;;;;;4995797;28;20200;-80
2020/12/24 06:34:30;;;;;;;1.00;0.90;;;-1.40;99.90;;;;;;4993981;28;20801;-79
2020/12/24 06:37:10;;;;;;;3.33;1.10;;;-1.50;99.90;;;;;;4997378;28;20195;-79
2020/12/24 06:39:45;;;;;;;0.82;0.82;;;-1.50;99.90;;;;;;4995176;28;20707;-79
2020/12/24 06:42:35;;;;;;;1.17;1.00;;;-1.40;99.90;;;;;;4995517;28;20209;-78
2020/12/24 06:45:05;;;;;;;3.88;0.90;;;-1.30;99.90;;;;;;4990779;28;20206;-80
2020/12/24 06:47:31;;;;;;;0.82;0.82;;;-1.30;99.90;;;;;;4998759;28;20302;-79
2020/12/24 06:49:56;;;;;;;2.95;1.00;;;-1.30;99.90;;;;;;4998117;28;20195;-78
2020/12/24 06:52:30;;;;;;;4.72;0.90;;;-1.20;99.90;;;;;;4997557;28;20246;-78
2020/12/24 06:55:15;;;;;;;2.35;1.00;;;-1.30;99.90;;;;;;4997673;28;20289;-79
2020/12/24 06:57:44;;;;;;;0.98;0.80;;;-1.30;99.90;;;;;;5003251;28;20226;-79
2020/12/24 07:00:17;;;;;;;1.08;1.00;;;-1.40;99.90;;;;;;5001175;28;20186;-79
2020/12/24 07:02:48;;;;;;;0.93;0.93;;;-1.50;99.90;;;;;;4998197;28;20235;-79
2020/12/24 07:05:41;;;;;;;3.47;0.93;;;-1.50;99.90;;;;;;4999443;28;20280;-79
2020/12/24 07:08:12;;;;;;;2.40;1.33;;;-1.50;99.90;;;;;;5002210;28;20742;-79
2020/12/24 07:10:48;;;;;;;1.13;1.02;;;-1.40;99.90;;;;;;4997164;28;20202;-81
2020/12/24 07:13:38;;;;;;;1.67;1.00;;;-1.40;99.90;;;;;;4996392;28;20703;-80
2020/12/24 07:16:04;;;;;;;2.70;0.90;;;-1.30;99.90;;;;;;4995104;28;20199;-78
2020/12/24 07:18:31;;;;;;;3.00;0.90;;;-1.30;99.90;;;;;;4996950;28;20319;-79
2020/12/24 07:21:03;;;;;;;3.80;0.88;;;-1.30;99.90;;;;;;5002524;28;20271;-80
2020/12/24 07:23:31;;;;;;;1.02;1.00;;;-1.20;99.90;;;;;;4996109;28;20211;-79
2020/12/24 07:26:02;;;;;;;0.80;0.80;;;-1.20;99.90;;;;;;4999671;28;20191;-78
2020/12/24 07:28:32;;;;;;;3.08;1.15;;;-1.10;99.90;;;;;;5000818;28;20206;-78
2020/12/24 07:31:00;;;;;;;1.10;1.00;;;-1.10;99.90;;;;;;4994765;28;20209;-78
2020/12/24 07:33:27;;;;;;;0.90;0.90;;;-1.10;99.90;;;;;;4996304;28;20226;-78
2020/12/24 07:35:53;;;;;;;1.33;1.23;;;-1.10;99.90;;;;;;4994802;28;20595;-79
2020/12/24 07:38:24;;;;;;;2.45;1.10;;;-1.10;99.90;;;;;;5001560;28;20214;-78
2020/12/24 07:40:50;;;;;;;1.77;1.50;;;-1.10;99.90;;;;;;4993226;28;20374;-78
2020/12/24 07:43:16;;;;;;;1.10;1.10;;;-0.90;99.90;;;;;;4998489;28;20891;-79
2020/12/24 07:45:42;;;;;;;6.28;1.52;;;-0.90;99.90;;;;;;4996842;28;20277;-78
2020/12/24 07:48:16;;;;;;;1.80;1.60;;;-0.90;99.90;;;;;;4996004;28;20603;-78
2020/12/24 07:50:44;;;;;;;1.75;1.10;;;-0.90;99.90;;;;;;4998981;28;20187;-79
2020/12/24 07:53:10;;;;;;;1.70;1.00;;;-1.00;99.90;;;;;;4994171;28;20199;-78
2020/12/24 07:55:36;;;;;;;1.20;1.10;;;-1.00;99.90;;;;;;4998111;28;20210;-78
2020/12/24 07:58:09;;;;;;;3.05;1.02;;;-0.90;99.90;;;;;;4999796;28;20199;-78
2020/12/24 08:00:46;;;;;;;0.95;0.90;;;-0.90;99.90;;;;;;5001164;28;20201;-78
2020/12/24 08:03:19;;;;;;;0.93;0.93;;;-0.90;99.90;;;;;;4995015;28;20234;-78
2020/12/24 08:05:46;;;;;;;2.05;1.08;;;-0.90;99.90;;;;;;4994925;28;20207;-78
2020/12/24 08:08:20;;;;;;;0.90;0.90;;;-0.80;99.90;;;;;;4993015;28;20218;-78
2020/12/24 08:10:46;;;;;;;0.80;0.80;;;-0.90;99.90;;;;;;4991328;28;20199;-78
2020/12/24 08:13:12;;;;;;;1.65;0.95;;;-0.90;99.90;;;;;;4992688;28;20199;-77
2020/12/24 08:15:46;;;;;;;0.90;0.90;;;-0.90;99.90;;;;;;4992894;28;20938;-79
2020/12/24 08:18:13;;;;;;;0.90;0.90;;;-0.80;99.90;;;;;;4994147;28;20219;-77
2020/12/24 08:20:43;;;;;;;1.25;1.00;;;-0.90;99.90;;;;;;4997921;28;20222;-77
2020/12/24 08:23:33;;;;;;;0.90;0.90;;;-0.90;99.90;;;;;;4996348;28;20236;-78
2020/12/24 08:25:59;;;;;;;1.10;1.00;;;-0.90;99.90;;;;;;4998317;28;20725;-78
2020/12/24 08:28:25;;;;;;;7.80;2.92;;;-0.90;99.90;;;;;;4997567;28;20224;-78
2020/12/24 08:30:51;;;;;;;8.48;2.60;;;-1.00;99.90;;;;;;5002493;28;20199;-78
2020/12/24 08:33:17;;;;;;;4.82;1.38;;;-0.90;99.90;;;;;;4999843;28;20738;-78
2020/12/24 08:35:43;;;;;;;6.90;2.50;;;-0.90;99.90;;;;;;4997531;28;20210;-77
2020/12/24 08:38:11;;;;;;;10.27;3.42;;;-0.80;99.90;;;;;;5005505;28;20202;-78
2020/12/24 08:40:36;;;;;;;1.13;1.02;;;-0.80;99.90;;;;;;4996394;28;20937;-78
2020/12/24 08:43:06;;;;;;;2.80;1.13;;;-0.80;99.90;;;;;;4999109;28;20218;-78
2020/12/24 08:45:31;;;;;;;20.92;5.78;;;-0.80;99.90;;;;;;5003108;28;20211;-78
2020/12/24 08:47:57;;;;;;;7.25;2.92;;;-0.70;99.90;;;;;;5002353;28;20215;-78
2020/12/24 08:50:34;;;;;;;2.55;1.70;;;-0.80;99.90;;;;;;4998691;28;20200;-78
2020/12/24 08:53:00;;;;;;;2.20;1.63;;;-0.80;99.90;;;;;;5000084;28;21115;-78
2020/12/24 08:55:28;;;;;;;2.45;1.10;;;-0.90;99.90;;;;;;4996354;28;20219;-78
2020/12/24 08:57:55;;;;;;;1.00;1.00;;;-0.80;99.90;;;;;;4993482;28;20220;-78
2020/12/24 09:00:22;;;;;;;5.32;1.20;;;-0.80;99.90;;;;;;5000558;28;20214;-78
2020/12/24 09:02:48;;;;;;;2.13;1.35;;;-0.70;99.90;;;;;;5001329;28;20226;-78
2020/12/24 09:05:20;;;;;;;1.20;1.10;;;-0.70;99.90;;;;;;5000775;28;20209;-78
2020/12/24 09:07:45;;;;;;;2.72;1.13;;;-0.80;99.90;;;;;;4997237;28;20211;-79
2020/12/24 09:10:14;;;;;;;1.00;1.00;;;-0.80;99.90;;;;;;4995795;28;20699;-78
2020/12/24 09:12:43;;;;;;;2.08;1.05;;;-0.70;99.90;;;;;;4993318;28;20194;-79
2020/12/24 09:15:09;;;;;;;1.52;1.40;;;-0.70;99.90;;;;;;4993474;28;20206;-79
2020/12/24 09:17:35;;;;;;;2.38;1.40;;;-0.70;99.90;;;;;;4988168;28;20755;-80
2020/12/24 09:20:11;;;;;;;14.00;4.38;;;-0.60;99.90;;;;;;4995738;28;21010;-78
2020/12/24 09:22:48;;;;;;;4.63;1.77;;;-0.60;99.90;;;;;;4993043;28;20234;-78
2020/12/24 09:25:29;;;;;;;2.90;1.73;;;-0.60;99.90;;;;;;4993613;28;20208;-78
2020/12/24 09:27:55;;;;;;;5.00;1.60;;;-0.50;99.90;;;;;;4990666;28;20993;-78
2020/12/24 09:30:20;;;;;;;3.35;1.48;;;-0.40;99.90;;;;;;4988457;28;20199;-78
2020/12/24 09:33:06;;;;;;;1.90;1.30;;;-0.30;99.90;;;;;;4990401;28;20199;-80
2020/12/24 09:35:32;;;;;;;3.20;1.52;;;-0.30;99.90;;;;;;4992444;28;20211;-77
2020/12/24 09:37:58;;;;;;;1.27;1.17;;;-0.20;99.90;;;;;;4995279;28;20214;-77
2020/12/24 09:40:25;;;;;;;1.67;1.10;;;-0.20;99.90;;;;;;4995486;28;20198;-77
2020/12/24 09:42:51;;;;;;;1.00;0.90;;;-0.20;99.90;;;;;;4996913;28;20210;-77
2020/12/24 09:45:17;;;;;;;1.00;0.90;;;-0.10;99.90;;;;;;4995347;28;20203;-77
2020/12/24 09:47:44;;;;;;;1.55;1.13;;;-0.10;99.90;;;;;;4997091;28;20206;-77
2020/12/24 09:50:10;;;;;;;1.58;1.30;;;-0.10;99.90;;;;;;4995839;28;20714;-78
2020/12/24 09:52:36;;;;;;;1.55;1.40;;;-0.10;99.90;;;;;;4996541;28;20956;-77
2020/12/24 09:55:03;;;;;;;2.58;1.80;;;-0.10;99.90;;;;;;4994134;28;20199;-77
2020/12/24 09:57:28;;;;;;;10.45;3.72;;;-0.20;99.90;;;;;;4991783;28;20724;-77
2020/12/24 09:59:54;;;;;;;11.68;4.60;;;-0.10;99.90;;;;;;4993938;28;20274;-78
2020/12/24 10:02:20;;;;;;;12.30;3.97;;;-0.10;99.90;;;;;;4996349;28;20238;-78
2020/12/24 10:04:46;;;;;;;2.13;1.60;;;-0.10;99.90;;;;;;4991354;28;20198;-77
2020/12/24 10:07:12;;;;;;;3.92;1.75;;;-0.20;99.90;;;;;;4990148;28;20206;-77
2020/12/24 10:09:37;;;;;;;2.85;1.52;;;-0.10;99.90;;;;;;4990624;28;20199;-78
2020/12/24 10:12:03;;;;;;;5.57;2.25;;;-0.10;99.90;;;;;;4990945;28;20201;-79
2020/12/24 10:14:29;;;;;;;5.65;1.83;;;-0.20;99.90;;;;;;4989386;28;20680;-78
2020/12/24 10:16:55;;;;;;;1.45;1.23;;;-0.30;99.90;;;;;;4989769;28;20258;-78
2020/12/24 10:19:20;;;;;;;3.10;1.90;;;-0.20;99.90;;;;;;4994597;28;20613;-78
2020/12/24 10:21:46;;;;;;;3.28;1.70;;;-0.30;99.90;;;;;;4995656;28;20194;-78
2020/12/24 10:24:12;;;;;;;7.53;2.70;;;-0.30;99.90;;;;;;4992930;28;20719;-78
2020/12/24 10:26:38;;;;;;;8.43;2.75;;;-0.40;99.90;;;;;;4990995;28;20763;-78
2020/12/24 10:29:04;;;;;;;11.40;3.80;;;-0.30;99.90;;;;;;4996690;28;20530;-77
2020/12/24 10:31:30;;;;;;;5.35;2.78;;;-0.30;99.90;;;;;;4991146;28;20196;-78
2020/12/24 10:33:56;;;;;;;7.25;2.78;;;-0.30;99.90;;;;;;4993915;28;20341;-77
2020/12/24 10:36:23;;;;;;;4.28;2.22;;;-0.30;99.90;;;;;;4994737;28;20210;-78
2020/12/24 10:38:49;;;;;;;3.05;1.90;;;-0.30;99.90;;;;;;4996465;28;20194;-77
2020/12/24 10:41:15;;;;;;;2.53;1.45;;;-0.30;99.90;;;;;;4995327;28;20798;-77
2020/12/24 10:43:41;;;;;;;10.23;3.38;;;-0.30;99.90;;;;;;4993513;28;20202;-77
2020/12/24 10:46:07;;;;;;;4.63;2.20;;;-0.20;99.90;;;;;;4989787;28;20192;-78
2020/12/24 10:48:32;;;;;;;2.17;1.40;;;-0.30;99.90;;;;;;4998956;28;20508;-78
2020/12/24 10:50:58;;;;;;;1.08;1.00;;;-0.30;99.90;;;;;;4994582;28;20203;-78
2020/12/24 10:53:24;;;;;;;1.02;0.90;;;-0.30;99.90;;;;;;5000688;28;20227;-78
2020/12/24 10:55:49;;;;;;;4.63;1.13;;;-0.30;99.90;;;;;;4995991;28;20608;-79
2020/12/24 10:58:15;;;;;;;2.55;1.10;;;-0.30;99.90;;;;;;4999428;28;20190;-78
2020/12/24 11:00:41;;;;;;;0.88;0.88;;;-0.30;99.90;;;;;;4998843;28;20203;-78
2020/12/24 11:03:07;;;;;;;1.48;1.00;;;-0.30;99.90;;;;;;4997652;28;20230;-78
2020/12/24 11:05:32;;;;;;;0.90;0.90;;;-0.20;99.90;;;;;;4997230;28;20214;-79
2020/12/24 11:07:58;;;;;;;1.50;1.05;;;-0.20;99.90;;;;;;4996070;28;20214;-78
2020/12/24 11:10:24;;;;;;;1.70;1.10;;;-0.10;99.90;;;;;;4987220;28;20231;-78
2020/12/24 11:12:50;;;;;;;6.18;2.65;;;0.00;99.90;;;;;;4997425;28;20198;-78
2020/12/24 11:15:16;;;;;;;2.50;1.50;;;0.00;99.90;;;;;;4999526;28;20278;-78
2020/12/24 11:17:41;;;;;;;6.40;2.53;;;0.00;99.90;;;;;;4995344;28;20203;-78
2020/12/24 11:20:07;;;;;;;11.85;3.40;;;0.00;99.90;;;;;;4999637;28;20195;-78
2020/12/24 11:22:32;;;;;;;7.70;2.83;;;0.10;99.90;;;;;;4998383;28;20225;-78
2020/12/24 11:24:58;;;;;;;18.05;4.25;;;0.00;99.90;;;;;;5002970;28;20199;-78
2020/12/24 11:27:24;;;;;;;1.30;1.20;;;0.10;99.90;;;;;;4999827;28;20215;-79
2020/12/24 11:29:50;;;;;;;1.13;0.80;;;0.10;99.90;;;;;;5000670;28;20202;-79
2020/12/24 11:32:17;;;;;;;13.57;4.72;;;0.10;99.90;;;;;;5004417;28;20278;-79
2020/12/24 11:34:43;;;;;;;9.40;3.50;;;0.20;99.90;;;;;;5001260;28;20199;-78
2020/12/24 11:37:09;;;;;;;3.47;1.80;;;0.00;99.90;;;;;;5000543;28;20720;-78
2020/12/24 11:39:34;;;;;;;5.47;2.45;;;0.00;99.90;;;;;;4995012;28;20282;-78
2020/12/24 11:42:00;;;;;;;3.58;1.63;;;0.00;99.90;;;;;;5002848;28;20202;-78
2020/12/24 11:44:26;;;;;;;11.48;3.88;;;0.10;99.90;;;;;;4999093;28;20226;-78
2020/12/24 11:46:51;;;;;;;2.25;1.50;;;0.10;99.90;;;;;;5001220;28;20215;-79
2020/12/24 11:49:17;;;;;;;3.15;1.90;;;0.10;99.90;;;;;;5001066;28;20575;-79
2020/12/24 11:51:43;;;;;;;1.20;0.93;;;0.10;99.90;;;;;;4996168;28;20198;-79
2020/12/24 11:54:08;;;;;;;1.70;1.00;;;0.20;99.90;;;;;;5001360;28;20298;-78
2020/12/24 11:56:34;;;;;;;1.30;1.00;;;0.20;99.90;;;;;;5000408;28;20194;-78
2020/12/24 11:59:00;;;;;;;0.80;0.80;;;0.20;99.90;;;;;;4994282;28;20612;-78
2020/12/24 12:01:25;;;;;;;4.22;0.95;;;0.10;99.90;;;;;;4998893;28;20198;-79
2020/12/24 12:03:52;;;;;;;1.10;1.00;;;0.10;99.90;;;;;;5001514;28;20582;-78
2020/12/24 12:06:18;;;;;;;1.05;0.98;;;0.10;99.90;;;;;;4999404;28;20245;-78
2020/12/24 12:08:48;;;;;;;2.40;1.08;;;0.10;99.90;;;;;;4997349;28;20676;-78
2020/12/24 12:11:15;;;;;;;2.45;0.90;;;0.10;99.90;;;;;;4988241;28;20199;-78
2020/12/24 12:13:40;;;;;;;1.08;0.98;;;0.20;99.90;;;;;;4996178;28;20198;-78
2020/12/24 12:16:10;;;;;;;1.15;1.05;;;0.20;99.90;;;;;;4999637;28;20660;-78
2020/12/24 12:18:36;;;;;;;0.93;0.70;;;0.20;99.90;;;;;;4996947;28;20293;-79
2020/12/24 12:21:03;;;;;;;0.88;0.88;;;0.30;99.90;;;;;;4996634;28;20262;-78
2020/12/24 12:23:29;;;;;;;1.20;0.90;;;0.30;99.90;;;;;;4999490;28;20209;-79
2020/12/24 12:25:55;;;;;;;1.77;1.00;;;0.30;99.90;;;;;;4993794;28;20203;-79
2020/12/24 12:28:20;;;;;;;4.25;1.00;;;0.30;99.90;;;;;;4996301;28;20207;-79
2020/12/24 12:30:46;;;;;;;1.35;0.90;;;0.30;99.90;;;;;;4993081;28;20616;-78
2020/12/24 12:33:12;;;;;;;1.00;0.90;;;0.30;99.90;;;;;;4997763;28;20783;-78
2020/12/24 12:35:38;;;;;;;1.38;0.90;;;0.30;99.90;;;;;;4998017;28;20705;-78
2020/12/24 12:38:03;;;;;;;1.20;1.10;;;0.30;99.90;;;;;;4995635;28;20195;-78
2020/12/24 12:40:32;;;;;;;1.33;1.00;;;0.20;99.90;;;;;;4992973;28;20716;-78
2020/12/24 12:42:58;;;;;;;1.45;1.20;;;0.20;99.90;;;;;;5000227;28;20326;-79
2020/12/24 12:45:24;;;;;;;3.78;1.20;;;0.20;99.90;;;;;;5001530;28;20203;-78
2020/12/24 12:47:50;;;;;;;5.30;1.27;;;0.20;99.90;;;;;;4996326;28;20752;-79
2020/12/24 12:50:15;;;;;;;1.20;1.10;;;0.20;99.90;;;;;;4997057;28;20201;-79